Aérodrome :
LOGIN :

S'inscrire | Disclaimer

   EN    FR    IT 

 










Légende :    VFR   VFR Marginal   IFR   IFR Intensif   IFR Très Intensif
Visi : 
Plafond : 
>= 8 km
>= 3000ft
5 à 8 km
1000 à 3000 ft
1500m à 5 km
500 à 1000 ft
800 à 1500m
200 à 500 ft
< 800m
< 200 ft
Symboles :   Orages  Brouillard  Fortes neiges  Fortes précipitations  Vent > 20 kt
SIGMETs :   Divers  Orages  Givrage  Turbulence  Onde Orograph.  Cendres Volcan.






- Altitude de l'aérodrome : 158 ft
- Code IATA : QAR


EHDL - Deelen Airbase

DERNIER METAR :
  • 271625Z AUTO 27004KT 200V310 9999 FEW033CB OVC066 17/08 Q1016 BLU

METARs EXPIRÉS :
  • 271555Z AUTO 24004KT 190V350 9999 BKN077 BKN093 OVC100 17/09 Q1016 BLU
  • 271525Z AUTO 24004KT 180V300 9999 OVC067 17/08 Q1016 BLU
  • 271455Z AUTO 27005KT 170V320 9999 BKN069 BKN075 OVC160 17/09 Q1016 BLU
  • 271425Z AUTO 27009KT 200V350 9999 FEW039 SCT044 BKN058 17/10 Q1016 BLU
  • 271355Z AUTO 20006KT 160V320 9999 FEW038 SCT047 OVC062 17/09 Q1016 BLU
  • 271325Z AUTO 22004KT 170V320 9999 SCT037 SCT041 BKN070 18/10 Q1016 BLU
  • 271255Z AUTO 22006KT 130V290 9999 BKN057 BKN064 OVC070 18/09 Q1017 BLU
  • 271225Z AUTO 22006KT 160V300 9999 BKN061 OVC067 17/08 Q1017 BLU
  • 271155Z AUTO 22006KT 140V310 9999 BKN039 BKN086 OVC094 18/10 Q1017 BLU

Prévision TAF périmée.



MET'MAP, la Météo Aéronautique d'un coup d'oeil ! - Copyright ORBIFLY Décembre 2007 - Disclaimer

ORBIFLY MET'MAP TEAM :

Programmation & Développement : Alexandra Zaïnal
Sur une idée originale de : Baudouin d'Aumeries
Soutien technique & logistique : Manuel Goepfert
Assistance : Marc-Olivier Méhu




SOURCES & CREDITS :

   NOAA